createdAt,value
2017-01-27T00:00:16.481Z,0
2017-01-27T00:01:30.296Z,0
2017-01-27T00:02:44.117Z,0
2017-01-27T00:03:56.723Z,0
2017-01-27T00:05:10.539Z,0
2017-01-27T00:06:23.751Z,0
2017-01-27T00:07:37.571Z,0
2017-01-27T00:08:51.419Z,0
2017-01-27T00:10:05.238Z,0
2017-01-27T00:11:19.095Z,0
2017-01-27T00:12:46.776Z,0
2017-01-27T00:13:59.986Z,0
2017-01-27T00:15:13.808Z,0
2017-01-27T00:16:27.636Z,0
2017-01-27T00:17:40.852Z,0
2017-01-27T00:18:54.664Z,0
2017-01-27T00:20:08.491Z,0
2017-01-27T00:21:21.700Z,0
2017-01-27T00:22:35.716Z,0
2017-01-27T00:23:49.002Z,0
2017-01-27T00:25:02.844Z,0
2017-01-27T00:26:16.098Z,0
2017-01-27T00:27:29.943Z,0
2017-01-27T00:28:44.018Z,0
2017-01-27T00:29:57.228Z,0
2017-01-27T00:31:11.049Z,0
2017-01-27T00:32:24.873Z,0
2017-01-27T00:33:38.939Z,0
2017-01-27T00:34:52.756Z,0
2017-01-27T00:36:05.369Z,0
2017-01-27T00:37:19.193Z,0
2017-01-27T00:38:33.010Z,0
2017-01-27T00:39:47.081Z,0
2017-01-27T00:41:00.901Z,0
2017-01-27T00:42:28.590Z,0
2017-01-27T00:43:42.416Z,0
2017-01-27T00:44:55.829Z,0
2017-01-27T00:46:09.649Z,0
2017-01-27T00:47:23.493Z,0
2017-01-27T00:48:37.316Z,0
2017-01-27T00:49:51.134Z,0
2017-01-27T00:51:04.949Z,0
2017-01-27T00:52:18.765Z,0
2017-01-27T00:53:31.984Z,0
2017-01-27T00:54:46.067Z,0
2017-01-27T00:55:59.884Z,0
2017-01-27T00:57:13.714Z,0
2017-01-27T00:58:26.946Z,0
2017-01-27T00:59:40.802Z,0
2017-01-27T01:00:54.992Z,0
2017-01-27T01:02:22.697Z,0
2017-01-27T01:03:36.526Z,0
2017-01-27T01:04:49.759Z,0
2017-01-27T01:06:03.946Z,0
2017-01-27T01:07:16.574Z,0
2017-01-27T01:08:29.815Z,0
2017-01-27T01:09:43.043Z,0
2017-01-27T01:10:56.022Z,0
2017-01-27T01:12:09.256Z,0
2017-01-27T01:13:22.491Z,0
2017-01-27T01:14:36.332Z,0
2017-01-27T01:15:50.175Z,0
2017-01-27T01:17:04.379Z,0
2017-01-27T01:18:17.621Z,0
2017-01-27T01:19:31.503Z,0
2017-01-27T01:20:45.349Z,0
2017-01-27T01:21:59.194Z,0
2017-01-27T01:23:13.039Z,0
2017-01-27T01:24:26.888Z,0
2017-01-27T01:25:40.736Z,0
2017-01-27T01:26:54.623Z,0
2017-01-27T01:28:08.476Z,0
2017-01-27T01:29:22.304Z,0
2017-01-27T01:30:35.525Z,0
2017-01-27T01:32:03.571Z,0
2017-01-27T01:33:17.395Z,0
2017-01-27T01:34:31.212Z,0
2017-01-27T01:35:45.030Z,0
2017-01-27T01:36:58.845Z,0
2017-01-27T01:38:11.447Z,0
2017-01-27T01:39:25.267Z,0
2017-01-27T01:40:39.084Z,0
2017-01-27T01:41:52.900Z,0
2017-01-27T01:43:06.116Z,0
2017-01-27T01:44:19.932Z,0
2017-01-27T01:45:32.540Z,0
2017-01-27T01:46:46.365Z,0
2017-01-27T01:48:00.533Z,0
2017-01-27T01:49:14.872Z,0
2017-01-27T01:50:28.756Z,0
2017-01-27T01:51:42.573Z,0
2017-01-27T01:52:56.394Z,0
2017-01-27T01:54:10.216Z,0
2017-01-27T01:55:24.039Z,0
2017-01-27T01:56:37.858Z,0
2017-01-27T01:57:51.681Z,0
2017-01-27T01:59:05.499Z,0
2017-01-27T02:00:18.718Z,0
2017-01-27T02:01:31.935Z,0
2017-01-27T02:02:45.773Z,0
2017-01-27T02:03:59.592Z,0
2017-01-27T02:05:12.816Z,0
2017-01-27T02:06:26.046Z,0
2017-01-27T02:07:39.884Z,0
2017-01-27T02:08:53.133Z,0
2017-01-27T02:10:06.379Z,0
2017-01-27T02:11:20.224Z,0
2017-01-27T02:12:34.041Z,0
2017-01-27T02:14:01.738Z,0
2017-01-27T02:15:15.065Z,0
2017-01-27T02:16:28.889Z,0
2017-01-27T02:17:42.719Z,0
2017-01-27T02:18:56.551Z,0
2017-01-27T02:20:10.623Z,0
2017-01-27T02:21:38.327Z,0
2017-01-27T02:22:51.550Z,0
2017-01-27T02:24:05.379Z,0
2017-01-27T02:25:17.990Z,0
2017-01-27T02:26:31.816Z,0
2017-01-27T02:27:45.638Z,0
2017-01-27T02:28:59.466Z,0
2017-01-27T02:30:12.704Z,0
2017-01-27T02:31:26.531Z,0
2017-01-27T02:32:54.234Z,0
2017-01-27T02:34:08.075Z,0
2017-01-27T02:35:22.277Z,0
2017-01-27T02:36:36.098Z,0
2017-01-27T02:37:49.923Z,0
2017-01-27T02:39:03.774Z,0
2017-01-27T02:40:16.394Z,0
2017-01-27T02:41:30.237Z,0
2017-01-27T02:42:44.079Z,0
2017-01-27T02:43:57.908Z,0
2017-01-27T02:45:11.130Z,0
2017-01-27T02:46:24.557Z,0
2017-01-27T02:47:37.795Z,0
2017-01-27T02:48:51.643Z,0
2017-01-27T02:50:04.877Z,0
2017-01-27T02:51:18.364Z,0
2017-01-27T02:52:32.215Z,0
2017-01-27T02:53:46.051Z,0
2017-01-27T02:54:59.898Z,0
2017-01-27T02:56:13.746Z,0
2017-01-27T02:57:27.926Z,0
2017-01-27T02:58:41.764Z,0
2017-01-27T02:59:55.617Z,0
2017-01-27T03:02:37.169Z,0
2017-01-27T03:03:51.024Z,0
2017-01-27T03:05:04.873Z,0
2017-01-27T03:06:18.117Z,0
2017-01-27T03:07:31.974Z,0
2017-01-27T03:08:45.828Z,0
2017-01-27T03:09:59.682Z,0
2017-01-27T03:11:13.541Z,0
2017-01-27T03:12:27.132Z,0
2017-01-27T03:13:40.981Z,0
2017-01-27T03:14:54.229Z,0
2017-01-27T03:16:21.939Z,0
2017-01-27T03:17:36.015Z,0
2017-01-27T03:18:49.870Z,0
2017-01-27T03:20:03.748Z,0
2017-01-27T03:21:16.986Z,0
2017-01-27T03:22:30.230Z,0
2017-01-27T03:23:44.084Z,0
2017-01-27T03:24:57.326Z,0
2017-01-27T03:26:11.179Z,0
2017-01-27T03:27:25.028Z,0
2017-01-27T03:28:38.879Z,0
2017-01-27T03:29:52.735Z,0
2017-01-27T03:31:05.994Z,0
2017-01-27T03:32:19.853Z,0
2017-01-27T03:33:33.097Z,0
2017-01-27T03:34:46.514Z,0
2017-01-27T03:36:00.376Z,0
2017-01-27T03:37:14.198Z,0
2017-01-27T03:38:28.031Z,0
2017-01-27T03:39:41.264Z,0
2017-01-27T03:40:54.485Z,0
2017-01-27T03:43:35.995Z,0
2017-01-27T03:44:50.169Z,0
2017-01-27T03:46:03.991Z,0
2017-01-27T03:47:17.214Z,0
2017-01-27T03:48:30.426Z,0
2017-01-27T03:49:44.593Z,0
2017-01-27T03:50:57.809Z,0
2017-01-27T03:52:11.626Z,0
2017-01-27T03:53:25.449Z,0
2017-01-27T03:54:39.274Z,0
2017-01-27T03:55:52.485Z,0
2017-01-27T03:57:05.703Z,0
2017-01-27T03:58:19.539Z,0
2017-01-27T03:59:32.755Z,0
2017-01-27T04:00:46.794Z,0
2017-01-27T04:02:00.029Z,0
2017-01-27T04:03:27.728Z,0
2017-01-27T04:04:41.547Z,0
2017-01-27T04:05:54.762Z,0
2017-01-27T04:07:08.599Z,0
2017-01-27T04:08:21.205Z,0
2017-01-27T04:09:34.452Z,0
2017-01-27T04:10:48.537Z,0
2017-01-27T04:12:02.358Z,0
2017-01-27T04:13:16.190Z,0
2017-01-27T04:14:30.020Z,0
2017-01-27T04:15:43.242Z,0
2017-01-27T04:16:57.327Z,0
2017-01-27T04:18:11.176Z,0
2017-01-27T04:19:24.400Z,0
2017-01-27T04:20:37.628Z,0
2017-01-27T04:21:51.473Z,0
2017-01-27T04:23:05.305Z,0
2017-01-27T04:24:19.181Z,0
2017-01-27T04:25:33.016Z,0
2017-01-27T04:26:46.865Z,0
2017-01-27T04:28:00.726Z,0
2017-01-27T04:29:13.950Z,0
2017-01-27T04:30:27.794Z,0
2017-01-27T04:31:41.871Z,0
2017-01-27T04:32:55.086Z,0
2017-01-27T04:34:08.930Z,0
2017-01-27T04:35:36.031Z,0
2017-01-27T04:36:49.875Z,0
2017-01-27T04:38:03.731Z,0
2017-01-27T04:39:16.972Z,0
2017-01-27T04:40:30.822Z,0
2017-01-27T04:41:44.676Z,0
2017-01-27T04:42:58.526Z,0
2017-01-27T04:44:12.383Z,0
2017-01-27T04:45:26.237Z,0
2017-01-27T04:46:40.086Z,0
2017-01-27T04:47:53.577Z,0
2017-01-27T04:49:06.821Z,0
2017-01-27T04:50:20.061Z,0
2017-01-27T04:51:33.306Z,0
2017-01-27T04:52:47.162Z,0
2017-01-27T04:54:00.759Z,0
2017-01-27T04:55:13.997Z,0
2017-01-27T04:56:27.277Z,0
2017-01-27T04:57:41.123Z,0
2017-01-27T04:58:54.970Z,0
2017-01-27T05:00:08.410Z,0
2017-01-27T05:01:22.259Z,0
2017-01-27T05:02:36.108Z,0
2017-01-27T05:03:49.958Z,0
2017-01-27T05:05:03.809Z,0
2017-01-27T05:06:17.660Z,0
2017-01-27T05:07:31.509Z,0
2017-01-27T05:08:45.355Z,0
2017-01-27T05:09:58.797Z,0
2017-01-27T05:11:12.644Z,0
2017-01-27T05:12:25.272Z,0
2017-01-27T05:13:39.123Z,0
2017-01-27T05:15:06.834Z,0
2017-01-27T05:16:20.681Z,0
2017-01-27T05:17:34.531Z,0
2017-01-27T05:19:02.244Z,0
2017-01-27T05:20:14.882Z,0
2017-01-27T05:21:28.126Z,0
2017-01-27T05:22:41.979Z,0
2017-01-27T05:23:55.828Z,0
2017-01-27T05:25:10.025Z,0
2017-01-27T05:26:23.268Z,0
2017-01-27T05:27:37.115Z,0
2017-01-27T05:28:51.167Z,0
2017-01-27T05:30:05.016Z,0
2017-01-27T05:31:18.454Z,0
2017-01-27T05:32:46.167Z,0
2017-01-27T05:34:00.015Z,0
2017-01-27T05:35:13.863Z,0
2017-01-27T05:36:27.942Z,0
2017-01-27T05:37:41.791Z,0
2017-01-27T05:38:55.638Z,0
2017-01-27T05:40:08.880Z,0
2017-01-27T05:41:22.395Z,0
2017-01-27T05:42:35.642Z,0
2017-01-27T05:43:48.886Z,0
2017-01-27T05:45:16.602Z,0
2017-01-27T05:46:30.700Z,0
2017-01-27T05:47:58.409Z,0
2017-01-27T05:49:12.259Z,0
2017-01-27T05:51:52.860Z,0
2017-01-27T05:53:06.707Z,0
2017-01-27T05:54:19.950Z,0
2017-01-27T05:55:47.660Z,0
2017-01-27T05:57:01.761Z,0
2017-01-27T05:58:15.611Z,0
2017-01-27T05:59:28.853Z,0
2017-01-27T06:00:42.699Z,0
2017-01-27T06:01:56.294Z,0
2017-01-27T06:03:10.173Z,0
2017-01-27T06:04:24.026Z,0
2017-01-27T06:05:37.878Z,0
2017-01-27T06:06:51.984Z,0
2017-01-27T06:08:05.834Z,0
2017-01-27T06:09:19.069Z,0
2017-01-27T06:10:32.314Z,0
2017-01-27T06:11:46.160Z,0
2017-01-27T06:12:59.147Z,0
2017-01-27T06:14:13.000Z,0
2017-01-27T06:15:26.238Z,0
2017-01-27T06:16:39.479Z,0
2017-01-27T06:17:52.721Z,0
2017-01-27T06:19:05.962Z,0
2017-01-27T06:20:19.815Z,0
2017-01-27T06:21:33.664Z,0
2017-01-27T06:22:46.907Z,0
2017-01-27T06:24:00.970Z,0
2017-01-27T06:25:14.823Z,0
2017-01-27T06:26:28.681Z,0
2017-01-27T06:27:42.536Z,0
2017-01-27T06:28:56.385Z,0
2017-01-27T06:30:10.239Z,0
2017-01-27T06:31:24.096Z,0
2017-01-27T06:32:37.950Z,0
2017-01-27T06:33:51.800Z,0
2017-01-27T06:35:05.041Z,0
2017-01-27T06:36:18.280Z,0
2017-01-27T06:37:32.129Z,0
2017-01-27T06:38:45.368Z,0
2017-01-27T06:39:59.422Z,0
2017-01-27T06:41:12.665Z,0
2017-01-27T06:42:26.514Z,0
2017-01-27T06:43:39.152Z,0
2017-01-27T06:44:53.004Z,0
2017-01-27T06:46:06.856Z,0
2017-01-27T06:47:20.100Z,0
2017-01-27T06:48:33.952Z,0
2017-01-27T06:49:47.801Z,0
2017-01-27T06:51:01.650Z,0
2017-01-27T06:52:14.898Z,0
2017-01-27T06:53:28.744Z,0
2017-01-27T06:54:42.599Z,0
2017-01-27T06:55:56.700Z,0
2017-01-27T06:57:10.551Z,0
2017-01-27T06:58:22.576Z,0
2017-01-27T06:59:35.829Z,0
2017-01-27T07:00:49.082Z,0
2017-01-27T07:02:02.675Z,0
2017-01-27T07:03:15.310Z,0
2017-01-27T07:04:29.158Z,0
2017-01-27T07:05:42.398Z,0
2017-01-27T07:06:56.499Z,0
2017-01-27T07:08:10.384Z,0
2017-01-27T07:09:24.237Z,0
2017-01-27T07:10:38.084Z,0
2017-01-27T07:11:51.935Z,0
2017-01-27T07:13:06.135Z,0
2017-01-27T07:14:19.983Z,0
2017-01-27T07:15:33.835Z,0
2017-01-27T07:16:47.072Z,0
2017-01-27T07:18:01.271Z,0
2017-01-27T07:19:14.518Z,0
2017-01-27T07:20:28.365Z,0
2017-01-27T07:21:42.217Z,0
2017-01-27T07:22:56.066Z,0
2017-01-27T07:24:09.922Z,0
2017-01-27T07:25:37.028Z,0
2017-01-27T07:26:49.662Z,0
2017-01-27T07:28:03.708Z,0
2017-01-27T07:29:16.948Z,0
2017-01-27T07:30:30.808Z,0
2017-01-27T07:31:44.660Z,0
2017-01-27T07:32:58.514Z,0
2017-01-27T07:34:12.370Z,0
2017-01-27T07:35:26.223Z,0
2017-01-27T07:36:40.073Z,0
2017-01-27T07:37:53.922Z,0
2017-01-27T07:39:06.559Z,0
2017-01-27T07:40:34.270Z,0
2017-01-27T07:41:48.120Z,0
2017-01-27T07:43:01.360Z,0
2017-01-27T07:44:14.600Z,0
2017-01-27T07:45:28.454Z,0
2017-01-27T07:46:42.317Z,0
2017-01-27T07:47:56.169Z,0
2017-01-27T07:49:10.020Z,0
2017-01-27T07:50:23.872Z,0
2017-01-27T07:51:36.506Z,0
2017-01-27T07:52:50.386Z,0
2017-01-27T07:54:03.630Z,0
2017-01-27T07:55:17.476Z,0
2017-01-27T07:56:30.107Z,0
2017-01-27T07:57:43.953Z,0
2017-01-27T07:58:57.798Z,0
2017-01-27T08:00:11.647Z,0
2017-01-27T08:01:24.891Z,0
2017-01-27T08:02:38.741Z,0
2017-01-27T08:03:51.985Z,0
2017-01-27T08:05:05.229Z,0
2017-01-27T08:06:18.474Z,0
2017-01-27T08:07:32.323Z,0
2017-01-27T08:08:45.563Z,0
2017-01-27T08:09:59.413Z,0
2017-01-27T08:11:13.514Z,0
2017-01-27T08:12:27.364Z,0
2017-01-27T08:13:40.618Z,0
2017-01-27T08:14:54.467Z,0
2017-01-27T08:16:08.319Z,0
2017-01-27T08:17:35.070Z,0
2017-01-27T08:18:48.313Z,0
2017-01-27T08:20:00.945Z,0
2017-01-27T08:21:14.189Z,0
2017-01-27T08:22:28.035Z,0
2017-01-27T08:23:41.886Z,0
2017-01-27T08:24:55.152Z,0
2017-01-27T08:26:08.400Z,0
2017-01-27T08:29:02.602Z,0
2017-01-27T08:30:30.314Z,0
2017-01-27T08:31:44.161Z,0
2017-01-27T08:32:58.366Z,0
2017-01-27T08:34:11.631Z,0
2017-01-27T08:35:24.881Z,0
2017-01-27T08:36:38.730Z,0
2017-01-27T08:37:52.833Z,0
2017-01-27T08:39:05.474Z,0
2017-01-27T08:40:18.107Z,0
2017-01-27T08:41:31.953Z,0
2017-01-27T08:42:45.804Z,0
2017-01-27T08:44:13.519Z,0
2017-01-27T08:45:40.629Z,0
2017-01-27T08:46:54.480Z,0
2017-01-27T08:48:07.720Z,0
2017-01-27T08:49:21.572Z,0
2017-01-27T08:50:35.431Z,0
2017-01-27T08:51:49.284Z,0
2017-01-27T08:53:02.523Z,0
2017-01-27T08:54:15.519Z,0
2017-01-27T08:55:29.389Z,0
2017-01-27T08:56:43.240Z,0
2017-01-27T08:57:57.090Z,0
2017-01-27T08:59:10.328Z,0
2017-01-27T09:00:23.565Z,0
2017-01-27T09:01:37.413Z,0
2017-01-27T09:02:51.260Z,0
2017-01-27T09:04:05.113Z,0
2017-01-27T09:05:17.744Z,0
2017-01-27T09:06:45.454Z,0
2017-01-27T09:07:58.694Z,0
2017-01-27T09:09:11.325Z,0
2017-01-27T09:10:24.814Z,0
2017-01-27T09:11:37.489Z,0
2017-01-27T09:12:51.349Z,0
2017-01-27T09:14:05.200Z,0
2017-01-27T09:15:32.913Z,0
2017-01-27T09:17:00.639Z,0
2017-01-27T09:18:13.292Z,0
2017-01-27T09:19:27.137Z,0
2017-01-27T09:20:40.678Z,0
2017-01-27T09:21:54.526Z,0
2017-01-27T09:23:08.379Z,5
2017-01-27T09:24:21.625Z,5
2017-01-27T09:25:35.477Z,5
2017-01-27T09:26:49.323Z,5
2017-01-27T09:28:01.978Z,5
2017-01-27T09:29:15.221Z,5
2017-01-27T09:30:29.072Z,5
2017-01-27T09:31:42.561Z,5
2017-01-27T09:32:56.409Z,5
2017-01-27T09:34:10.263Z,5
2017-01-27T09:35:22.895Z,5
2017-01-27T09:36:37.100Z,5
2017-01-27T09:37:50.342Z,5
2017-01-27T09:39:03.594Z,10
2017-01-27T09:40:17.442Z,10
2017-01-27T09:41:31.290Z,10
2017-01-27T09:42:45.336Z,10
2017-01-27T09:43:57.968Z,10
2017-01-27T09:45:11.820Z,10
2017-01-27T09:46:25.670Z,10
2017-01-27T09:47:39.819Z,10
2017-01-27T09:48:53.670Z,10
2017-01-27T09:50:05.695Z,10
2017-01-27T09:51:18.941Z,15
2017-01-27T09:52:31.579Z,15
2017-01-27T09:53:45.429Z,15
2017-01-27T09:54:58.675Z,15
2017-01-27T09:56:12.525Z,15
2017-01-27T09:57:26.376Z,15
2017-01-27T09:58:39.620Z,15
2017-01-27T09:59:53.510Z,20
2017-01-27T10:01:06.764Z,15
2017-01-27T10:02:20.029Z,15
2017-01-27T10:03:33.280Z,20
2017-01-27T10:04:47.143Z,20
2017-01-27T10:06:00.429Z,20
2017-01-27T10:07:13.710Z,20
2017-01-27T10:08:27.611Z,20
2017-01-27T10:09:40.865Z,20
2017-01-27T10:10:54.726Z,20
2017-01-27T10:12:08.084Z,20
2017-01-27T10:13:21.989Z,20
2017-01-27T10:14:35.358Z,20
2017-01-27T10:15:49.518Z,20
2017-01-27T10:17:03.571Z,20
2017-01-27T10:18:17.141Z,20
2017-01-27T10:19:31.310Z,20
2017-01-27T10:20:45.034Z,20
2017-01-27T10:21:59.266Z,20
2017-01-27T10:23:12.813Z,20
2017-01-27T10:24:26.349Z,20
2017-01-27T10:27:08.505Z,20
2017-01-27T10:28:20.847Z,20
2017-01-27T10:29:35.029Z,25
2017-01-27T10:30:49.642Z,25
2017-01-27T10:32:04.112Z,25
2017-01-27T10:33:17.987Z,25
2017-01-27T10:34:31.836Z,25
2017-01-27T10:35:45.890Z,25
2017-01-27T10:36:59.742Z,25
2017-01-27T10:38:12.987Z,25
2017-01-27T10:39:26.835Z,20
2017-01-27T10:40:54.304Z,20
2017-01-27T10:42:08.294Z,20
2017-01-27T10:43:21.745Z,20
2017-01-27T10:44:35.795Z,20
2017-01-27T10:45:49.123Z,20
2017-01-27T10:47:02.779Z,20
2017-01-27T10:48:16.817Z,20
2017-01-27T10:50:58.765Z,20
2017-01-27T10:52:11.880Z,15
2017-01-27T10:53:52.973Z,15
2017-01-27T10:55:07.082Z,15
2017-01-27T10:56:19.999Z,15
2017-01-27T10:57:34.359Z,20
2017-01-27T10:58:48.564Z,20
2017-01-27T11:00:02.729Z,20
2017-01-27T11:01:16.357Z,20
2017-01-27T11:02:30.279Z,20
2017-01-27T11:03:43.894Z,20
2017-01-27T11:04:58.088Z,20
2017-01-27T11:06:11.683Z,20
2017-01-27T11:07:25.058Z,20
2017-01-27T11:08:38.341Z,20
2017-01-27T11:09:52.183Z,20
2017-01-27T11:11:05.107Z,20
2017-01-27T11:12:17.903Z,20
2017-01-27T11:13:31.785Z,25
2017-01-27T11:14:45.613Z,30
2017-01-27T11:15:59.452Z,35
2017-01-27T11:17:13.288Z,35
2017-01-27T11:18:40.466Z,35
2017-01-27T11:19:53.105Z,35
2017-01-27T11:21:06.971Z,30
2017-01-27T11:22:20.997Z,30
2017-01-27T11:23:35.086Z,25
2017-01-27T11:24:48.960Z,30
2017-01-27T11:26:02.944Z,35
2017-01-27T11:27:30.186Z,35
2017-01-27T11:28:42.886Z,35
2017-01-27T11:29:56.803Z,35
2017-01-27T11:31:23.997Z,40
2017-01-27T11:32:38.049Z,35
2017-01-27T11:33:50.987Z,35
2017-01-27T11:35:04.988Z,35
2017-01-27T11:36:18.426Z,35
2017-01-27T11:37:32.372Z,35
2017-01-27T11:38:45.991Z,35
2017-01-27T11:40:27.952Z,35
2017-01-27T11:41:41.492Z,30
2017-01-27T11:42:55.363Z,30
2017-01-27T11:44:08.602Z,30
2017-01-27T11:45:21.227Z,30
2017-01-27T11:46:35.080Z,30
2017-01-27T11:47:48.926Z,30
2017-01-27T11:49:02.168Z,30
2017-01-27T11:50:15.413Z,35
2017-01-27T11:51:29.261Z,35
2017-01-27T11:52:42.500Z,35
2017-01-27T11:53:56.367Z,35
2017-01-27T11:55:08.996Z,30
2017-01-27T11:56:20.425Z,30
2017-01-27T11:57:34.273Z,30
2017-01-27T12:00:15.230Z,30
2017-01-27T12:01:29.080Z,30
2017-01-27T12:02:42.931Z,35
2017-01-27T12:03:56.785Z,35
2017-01-27T12:05:10.285Z,35
2017-01-27T12:06:23.535Z,35
2017-01-27T12:07:36.167Z,35
2017-01-27T12:08:49.400Z,35
2017-01-27T12:10:03.246Z,35
2017-01-27T12:11:16.500Z,35
2017-01-27T12:12:30.365Z,40
2017-01-27T12:13:44.218Z,35
2017-01-27T12:14:58.069Z,30
2017-01-27T12:16:12.274Z,30
2017-01-27T12:17:25.519Z,30
2017-01-27T12:18:39.370Z,30
2017-01-27T12:19:53.220Z,25
2017-01-27T12:21:07.061Z,25
2017-01-27T12:22:20.950Z,30
2017-01-27T12:23:34.859Z,35
2017-01-27T12:24:48.086Z,35
2017-01-27T12:26:01.908Z,35
2017-01-27T12:27:15.381Z,35
2017-01-27T12:28:28.592Z,75
2017-01-27T12:29:41.227Z,65
2017-01-27T12:30:55.047Z,75
2017-01-27T12:32:07.692Z,65
2017-01-27T12:33:21.516Z,75
2017-01-27T12:34:35.348Z,55
2017-01-27T12:35:49.172Z,55
2017-01-27T12:37:02.392Z,65
2017-01-27T12:38:16.220Z,40
2017-01-27T12:39:30.043Z,45
2017-01-27T12:42:11.272Z,75
2017-01-27T12:43:25.959Z,80
2017-01-27T12:44:53.873Z,75
2017-01-27T12:46:07.258Z,80
2017-01-27T12:47:21.438Z,40
2017-01-27T12:48:35.359Z,85
2017-01-27T12:49:49.206Z,40
2017-01-27T12:51:02.627Z,40
2017-01-27T12:52:15.921Z,40
2017-01-27T12:53:29.763Z,40
2017-01-27T12:54:43.595Z,65
2017-01-27T12:56:10.700Z,60
2017-01-27T12:59:06.136Z,55
2017-01-27T13:00:20.144Z,50
2017-01-27T13:01:34.188Z,50
2017-01-27T13:02:47.536Z,85
2017-01-27T13:04:01.587Z,90
2017-01-27T13:05:14.896Z,55
2017-01-27T13:06:28.831Z,55
2017-01-27T13:07:56.627Z,45
2017-01-27T13:09:09.861Z,40
2017-01-27T13:10:23.142Z,40
2017-01-27T13:11:36.984Z,45
2017-01-27T13:12:50.815Z,45
2017-01-27T13:14:04.640Z,50
2017-01-27T13:15:17.857Z,50
2017-01-27T13:16:31.676Z,45
2017-01-27T13:17:59.366Z,40
2017-01-27T13:19:12.590Z,40
2017-01-27T13:20:26.419Z,40
2017-01-27T13:21:40.294Z,40
2017-01-27T13:22:54.168Z,45
2017-01-27T13:24:08.243Z,50
2017-01-27T13:25:22.067Z,55
2017-01-27T13:26:35.889Z,60
2017-01-27T13:27:49.713Z,55
2017-01-27T13:29:03.537Z,45
2017-01-27T13:30:17.361Z,40
2017-01-27T13:31:29.999Z,40
2017-01-27T13:32:43.818Z,35
2017-01-27T13:33:57.691Z,30
2017-01-27T13:35:10.305Z,30
2017-01-27T13:36:24.135Z,25
2017-01-27T13:37:37.959Z,20
2017-01-27T13:38:51.790Z,20
2017-01-27T13:40:05.817Z,20
2017-01-27T13:41:19.033Z,20
2017-01-27T13:42:32.255Z,20
2017-01-27T13:43:46.082Z,20
2017-01-27T13:44:59.905Z,25
2017-01-27T13:46:27.600Z,25
2017-01-27T13:47:41.426Z,25
2017-01-27T13:48:55.246Z,30
2017-01-27T13:50:09.081Z,35
2017-01-27T13:51:23.256Z,40
2017-01-27T13:52:50.945Z,50
2017-01-27T13:54:04.782Z,60
2017-01-27T13:55:17.865Z,90
2017-01-27T13:56:45.563Z,70
2017-01-27T13:57:59.390Z,55
2017-01-27T13:59:13.213Z,60
2017-01-27T14:00:27.034Z,70
2017-01-27T14:01:40.247Z,100
2017-01-27T14:04:36.043Z,65
2017-01-27T14:05:50.683Z,45
2017-01-27T14:07:04.391Z,40
2017-01-27T14:08:18.295Z,40
2017-01-27T14:09:59.902Z,30
2017-01-27T14:11:13.997Z,35
2017-01-27T14:12:28.165Z,35
2017-01-27T14:13:42.000Z,35
2017-01-27T14:14:55.841Z,30
2017-01-27T14:16:09.687Z,30
2017-01-27T14:17:24.567Z,30
2017-01-27T14:18:38.417Z,25
2017-01-27T14:19:52.281Z,25
2017-01-27T14:21:06.134Z,25
2017-01-27T14:22:19.873Z,25
2017-01-27T14:23:33.850Z,25
2017-01-27T14:24:47.951Z,25
2017-01-27T14:26:02.104Z,20
2017-01-27T14:27:16.214Z,25
2017-01-27T14:28:44.611Z,25
2017-01-27T14:30:26.590Z,30
2017-01-27T14:31:40.776Z,30
2017-01-27T14:32:54.903Z,25
2017-01-27T14:34:09.060Z,25
2017-01-27T14:35:35.991Z,25
2017-01-27T14:36:49.492Z,25
2017-01-27T14:38:03.592Z,25
2017-01-27T14:39:17.677Z,30
2017-01-27T14:40:45.543Z,35
2017-01-27T14:41:59.536Z,40
2017-01-27T14:43:13.597Z,45
2017-01-27T14:44:26.393Z,40
2017-01-27T14:45:39.752Z,40
2017-01-27T14:46:53.860Z,30
2017-01-27T14:48:07.253Z,20
2017-01-27T14:49:20.084Z,20
2017-01-27T14:50:47.968Z,20
2017-01-27T14:52:02.023Z,15
2017-01-27T14:53:15.900Z,10
2017-01-27T14:55:57.091Z,5
2017-01-27T14:57:10.326Z,5
2017-01-27T14:58:24.156Z,5
2017-01-27T14:59:37.632Z,5
2017-01-27T15:00:50.860Z,10
2017-01-27T15:02:04.688Z,5
2017-01-27T15:03:17.935Z,5
2017-01-27T15:04:31.765Z,5
2017-01-27T15:05:45.593Z,5
2017-01-27T15:06:59.429Z,5
2017-01-27T15:08:13.284Z,10
2017-01-27T15:09:27.119Z,10
2017-01-27T15:10:40.689Z,10
2017-01-27T15:11:53.929Z,10
2017-01-27T15:13:21.630Z,10
2017-01-27T15:14:35.525Z,10
2017-01-27T15:16:03.881Z,10
2017-01-27T15:17:46.910Z,10
2017-01-27T15:19:00.945Z,10
2017-01-27T15:20:15.040Z,10
2017-01-27T15:23:38.444Z,10
2017-01-27T15:25:06.381Z,10
2017-01-27T15:26:19.636Z,10
2017-01-27T15:27:33.455Z,10
2017-01-27T15:28:47.276Z,10
2017-01-27T15:30:01.095Z,10
2017-01-27T15:31:13.709Z,10
2017-01-27T15:32:27.531Z,10
2017-01-27T15:33:41.365Z,10
2017-01-27T15:34:55.192Z,10
2017-01-27T15:36:09.013Z,10
2017-01-27T15:37:22.237Z,10
2017-01-27T15:38:36.056Z,15
2017-01-27T15:39:50.317Z,15
2017-01-27T15:41:04.177Z,15
2017-01-27T15:42:18.258Z,20
2017-01-27T15:43:45.346Z,20
2017-01-27T15:45:13.060Z,20
2017-01-27T15:46:26.884Z,25
2017-01-27T15:47:54.778Z,25
2017-01-27T15:49:08.594Z,25
2017-01-27T15:50:21.806Z,25
2017-01-27T15:51:35.629Z,15
2017-01-27T15:52:48.842Z,15
2017-01-27T15:54:02.063Z,20
2017-01-27T15:55:29.758Z,20
2017-01-27T15:56:43.576Z,25
2017-01-27T15:57:57.405Z,25
2017-01-27T15:59:10.014Z,20
2017-01-27T16:00:23.231Z,25
2017-01-27T16:01:37.053Z,20
2017-01-27T16:02:50.879Z,25
2017-01-27T16:04:04.702Z,25
2017-01-27T16:05:17.917Z,25
2017-01-27T16:06:31.742Z,20
2017-01-27T16:07:45.568Z,20
2017-01-27T16:08:59.393Z,20
2017-01-27T16:10:13.273Z,25
2017-01-27T16:11:27.095Z,25
2017-01-27T16:12:40.924Z,20
2017-01-27T16:15:22.647Z,15
2017-01-27T16:16:36.469Z,10
2017-01-27T16:17:50.304Z,10
2017-01-27T16:19:04.903Z,10
2017-01-27T16:20:18.131Z,10
2017-01-27T16:21:31.959Z,5
2017-01-27T16:22:45.198Z,5
2017-01-27T16:23:59.033Z,5
2017-01-27T16:25:11.648Z,5
2017-01-27T16:26:24.302Z,5
2017-01-27T16:27:38.122Z,5
2017-01-27T16:28:51.942Z,5
2017-01-27T16:30:05.764Z,5
2017-01-27T16:31:19.589Z,5
2017-01-27T16:32:33.412Z,5
2017-01-27T16:33:47.239Z,5
2017-01-27T16:36:28.758Z,5
2017-01-27T16:37:42.582Z,5
2017-01-27T16:38:56.401Z,5
2017-01-27T16:40:09.008Z,10
2017-01-27T16:41:22.219Z,10
2017-01-27T16:42:36.036Z,10
2017-01-27T16:43:49.858Z,10
2017-01-27T16:46:45.242Z,10
2017-01-27T16:47:59.061Z,10
2017-01-27T16:49:12.878Z,5
2017-01-27T16:50:26.694Z,5
2017-01-27T16:51:54.384Z,5
2017-01-27T16:53:08.211Z,5
2017-01-27T16:54:21.439Z,5
2017-01-27T16:55:35.618Z,5
2017-01-27T16:56:49.441Z,5
2017-01-27T16:58:03.270Z,5
2017-01-27T16:59:17.087Z,5
2017-01-27T17:00:44.372Z,5
2017-01-27T17:01:58.196Z,5
2017-01-27T17:03:11.405Z,10
2017-01-27T17:04:25.221Z,10
2017-01-27T17:05:38.784Z,15
2017-01-27T17:06:52.607Z,15
2017-01-27T17:08:20.296Z,20
2017-01-27T17:09:33.512Z,20
2017-01-27T17:10:47.580Z,20
2017-01-27T17:12:00.798Z,20
2017-01-27T17:13:14.627Z,15
2017-01-27T17:14:28.444Z,10
2017-01-27T17:15:42.260Z,10
2017-01-27T17:17:09.946Z,10
2017-01-27T17:18:22.562Z,5
2017-01-27T17:19:36.385Z,5
2017-01-27T17:22:17.334Z,5
2017-01-27T17:23:31.175Z,5
2017-01-27T17:24:43.779Z,10
2017-01-27T17:25:57.597Z,10
2017-01-27T17:27:39.180Z,10
2017-01-27T17:29:06.866Z,15
2017-01-27T17:30:20.075Z,15
2017-01-27T17:31:33.899Z,15
2017-01-27T17:32:47.717Z,15
2017-01-27T17:34:01.543Z,15
2017-01-27T17:35:14.752Z,15
2017-01-27T17:36:28.573Z,10
2017-01-27T17:37:41.785Z,10
2017-01-27T17:38:55.604Z,5
2017-01-27T17:40:23.313Z,5
2017-01-27T17:41:37.404Z,5
2017-01-27T17:42:50.615Z,5
2017-01-27T17:44:04.428Z,5
2017-01-27T17:45:17.642Z,5
2017-01-27T17:46:31.687Z,5
2017-01-27T17:47:45.512Z,10
2017-01-27T17:48:59.328Z,10
2017-01-27T17:50:12.537Z,15
2017-01-27T17:51:25.746Z,20
2017-01-27T17:52:39.563Z,20
2017-01-27T17:53:52.773Z,20
2017-01-27T17:55:06.593Z,25
2017-01-27T17:56:20.412Z,25
2017-01-27T17:57:34.243Z,20
2017-01-27T17:58:48.066Z,20
2017-01-27T18:00:01.273Z,25
2017-01-27T18:01:14.489Z,25
2017-01-27T18:02:28.309Z,25
2017-01-27T18:03:42.377Z,25
2017-01-27T18:04:56.198Z,20
2017-01-27T18:06:10.032Z,20
2017-01-27T18:07:23.845Z,25
2017-01-27T18:08:51.540Z,25
2017-01-27T18:10:05.364Z,25
2017-01-27T18:11:19.181Z,25
2017-01-27T18:12:33.000Z,25
2017-01-27T18:13:46.217Z,25
2017-01-27T18:14:59.431Z,25
2017-01-27T18:16:12.790Z,25
2017-01-27T18:17:25.993Z,25
2017-01-27T18:18:40.939Z,25
2017-01-27T18:19:54.833Z,20
2017-01-27T18:21:08.649Z,20
2017-01-27T18:22:22.466Z,20
2017-01-27T18:23:36.295Z,20
2017-01-27T18:24:50.114Z,20
2017-01-27T18:26:03.934Z,20
2017-01-27T18:27:17.146Z,20
2017-01-27T18:28:31.336Z,20
2017-01-27T18:29:45.541Z,20
2017-01-27T18:32:27.119Z,20
2017-01-27T18:33:41.355Z,15